Time;durP1;ratioP1;P1;durP2;ratioP2;P2;SDS_P1;SDS_P2;PMS_P1;PMS_P2;Temp;Humidity;BMP_temperature;BMP_pressure;BME280_temperature;BME280_humidity;BME280_pressure;Samples;Min_cycle;Max_cycle;Signal;HPM_P1;HPM_P2
2021/03/19 00:01:29;;;;;;;54.05;25.02;;;;;;;-0.44;68.94;98465.97;5111484;28;20110;-78
2021/03/19 00:03:55;;;;;;;46.72;23.92;;;;;;;-0.45;69.05;98481.28;5111546;28;20475;-78
2021/03/19 00:06:20;;;;;;;48.15;23.13;;;;;;;-0.38;68.64;98468.59;5111417;28;20217;-78
2021/03/19 00:08:46;;;;;;;51.00;24.02;;;;;;;-0.36;68.81;98471.03;5110952;28;20073;-77
2021/03/19 00:11:11;;;;;;;56.17;26.17;;;;;;;-0.34;68.94;98464.38;5111354;28;20110;-78
2021/03/19 00:13:37;;;;;;;42.63;19.42;;;;;;;-0.28;68.84;98468.03;5111443;28;20027;-78
2021/03/19 00:16:03;;;;;;;49.80;22.52;;;;;;;-0.27;68.95;98466.19;5092455;28;20032;-78
2021/03/19 00:18:29;;;;;;;90.57;30.02;;;;;;;-0.24;68.92;98460.34;5111111;28;20139;-78
2021/03/19 00:20:54;;;;;;;175.15;50.85;;;;;;;-0.32;68.70;98466.84;5111016;28;20031;-78
2021/03/19 00:23:20;;;;;;;56.63;25.25;;;;;;;-0.36;69.05;98468.34;5111175;28;20024;-77
2021/03/19 00:25:45;;;;;;;44.58;20.70;;;;;;;-0.38;68.91;98457.81;5111340;28;20030;-78
2021/03/19 00:28:15;;;;;;;78.97;31.73;;;;;;;-0.41;68.86;98462.81;5092552;28;20035;-77
2021/03/19 00:30:45;;;;;;;52.50;23.95;;;;;;;-0.42;68.59;98458.47;5110575;28;20028;-77
2021/03/19 00:33:11;;;;;;;62.97;25.08;;;;;;;-0.43;69.06;98454.16;5111133;28;21753;-77
2021/03/19 00:35:37;;;;;;;79.03;29.67;;;;;;;-0.48;69.00;98444.84;5110895;28;20030;-77
2021/03/19 00:38:03;;;;;;;61.22;24.35;;;;;;;-0.59;68.66;98456.38;5110767;28;20427;-77
2021/03/19 00:40:29;;;;;;;53.03;23.17;;;;;;;-0.67;68.97;98453.97;5109678;28;20020;-77
2021/03/19 00:42:55;;;;;;;49.22;22.13;;;;;;;-0.68;68.90;98453.16;5110415;28;20027;-77
2021/03/19 00:45:23;;;;;;;43.10;20.58;;;;;;;-0.66;69.06;98452.91;5110942;28;20023;-77
2021/03/19 00:47:53;;;;;;;48.90;22.20;;;;;;;-0.65;69.59;98446.50;5110232;28;20032;-78
2021/03/19 00:50:29;;;;;;;;;;;;;;;-0.68;68.90;98452.31;5110640;28;20030;-77
2021/03/19 00:52:55;;;;;;;54.22;23.73;;;;;;;-0.64;69.01;98440.88;5110324;28;20046;-76
2021/03/19 00:55:21;;;;;;;57.17;25.73;;;;;;;-0.57;69.09;98448.88;5110532;28;20317;-77
2021/03/19 00:57:46;;;;;;;66.72;28.27;;;;;;;-0.52;69.14;98448.22;5091840;28;20380;-77
2021/03/19 01:00:13;;;;;;;62.42;26.17;;;;;;;-0.44;69.25;98449.81;5109796;28;20038;-76
2021/03/19 01:02:39;;;;;;;59.63;25.08;;;;;;;-0.47;69.34;98449.19;5108060;28;20019;-77
2021/03/19 01:05:09;;;;;;;64.93;26.27;;;;;;;-0.50;68.87;98446.94;5110399;28;20035;-77
2021/03/19 01:07:34;;;;;;;62.60;30.27;;;;;;;-0.46;69.09;98450.00;5110408;28;20030;-77
2021/03/19 01:10:00;;;;;;;48.08;21.98;;;;;;;-0.41;69.10;98450.16;5110170;28;20048;-77
2021/03/19 01:12:25;;;;;;;52.25;24.30;;;;;;;-0.45;69.30;98451.66;5110213;28;20077;-77
2021/03/19 01:14:51;;;;;;;87.78;33.72;;;;;;;-0.43;69.08;98454.94;5110013;28;20043;-77
2021/03/19 01:17:17;;;;;;;74.22;29.52;;;;;;;-0.45;68.94;98440.88;5110211;28;20367;-77
2021/03/19 01:19:42;;;;;;;125.68;43.05;;;;;;;-0.47;69.01;98448.38;5109849;28;20031;-77
2021/03/19 01:22:07;;;;;;;54.83;24.90;;;;;;;-0.55;68.80;98452.19;5110143;28;20047;-77
2021/03/19 01:24:33;;;;;;;45.45;20.77;;;;;;;-0.56;69.10;98447.84;5110171;28;20030;-77
2021/03/19 01:26:58;;;;;;;48.25;22.13;;;;;;;-0.55;69.18;98449.50;5109674;28;20028;-77
2021/03/19 01:29:24;;;;;;;52.40;22.75;;;;;;;-0.52;69.16;98440.97;5109570;28;20023;-76
2021/03/19 01:31:49;;;;;;;76.40;30.48;;;;;;;-0.50;68.70;98446.94;5109478;28;20031;-77
2021/03/19 01:34:14;;;;;;;71.88;28.70;;;;;;;-0.53;68.98;98444.72;5109559;28;20022;-77
2021/03/19 01:36:40;;;;;;;72.68;30.23;;;;;;;-0.55;68.79;98446.78;5109804;28;20015;-77
2021/03/19 01:39:05;;;;;;;66.53;28.63;;;;;;;-0.53;69.00;98446.56;5109445;28;20028;-76
2021/03/19 01:41:31;;;;;;;60.13;25.02;;;;;;;-0.56;68.71;98445.16;5109796;28;20077;-77
2021/03/19 01:44:25;;;;;;;70.03;27.27;;;;;;;-0.58;68.79;98441.00;5109516;28;20086;-77
2021/03/19 01:47:28;;;;;;;47.78;20.92;;;;;;;-0.56;69.04;98444.31;5090029;28;20439;-78
2021/03/19 01:50:32;;;;;;;45.60;21.40;;;;;;;-0.50;68.92;98446.13;5108444;28;20505;-77
2021/03/19 01:53:35;;;;;;;50.47;22.50;;;;;;;-0.47;69.02;98451.06;5109156;28;20024;-77
2021/03/19 01:56:38;;;;;;;56.85;25.45;;;;;;;-0.37;68.86;98445.13;5107952;28;20055;-77
2021/03/19 01:59:41;;;;;;;49.13;23.25;;;;;;;-0.42;68.76;98445.81;5107700;28;20027;-77
2021/03/19 02:02:43;;;;;;;43.90;20.05;;;;;;;-0.45;68.82;98451.66;5108261;28;20595;-77
2021/03/19 02:05:46;;;;;;;54.25;24.20;;;;;;;-0.36;68.98;98452.16;5108692;28;20034;-77
2021/03/19 02:08:49;;;;;;;45.67;21.20;;;;;;;-0.32;68.93;98443.44;5108478;28;20035;-77
2021/03/19 02:12:08;;;;;;;39.55;18.98;;;;;;;-0.42;68.43;98453.91;5108941;28;20039;-78
2021/03/19 02:15:11;;;;;;;40.45;19.13;;;;;;;-0.46;68.54;98445.47;5025296;28;20037;-77
2021/03/19 02:18:14;;;;;;;40.47;20.25;;;;;;;-0.54;68.17;98437.66;5108700;28;20103;-77
2021/03/19 02:21:16;;;;;;;57.35;26.92;;;;;;;-0.60;68.19;98441.25;5109271;28;20471;-77
2021/03/19 02:24:19;;;;;;;57.08;25.85;;;;;;;-0.67;68.38;98435.09;5089797;28;20032;-77
2021/03/19 02:27:22;;;;;;;48.45;22.30;;;;;;;-0.67;68.54;98430.56;5089458;28;20542;-77
2021/03/19 02:30:25;;;;;;;40.13;19.92;;;;;;;-0.69;68.60;98419.19;5107983;28;20032;-77
2021/03/19 02:32:50;;;;;;;41.55;19.50;;;;;;;-0.75;68.07;98420.06;5108594;28;20423;-77
2021/03/19 02:35:19;;;;;;;47.38;21.67;;;;;;;-0.78;68.50;98429.41;5109088;28;20027;-78
2021/03/19 02:37:45;;;;;;;45.63;21.57;;;;;;;-0.70;68.75;98416.69;5108783;28;20020;-77
2021/03/19 02:40:15;;;;;;;43.08;21.85;;;;;;;-0.66;68.71;98426.81;5109909;28;20103;-77
2021/03/19 02:42:40;;;;;;;47.60;22.13;;;;;;;-0.60;68.45;98423.22;5107819;28;20034;-77
2021/03/19 02:45:10;;;;;;;42.58;21.02;;;;;;;-0.56;68.77;98423.59;5111421;28;20106;-77
2021/03/19 02:47:35;;;;;;;43.22;20.60;;;;;;;-0.60;68.55;98419.72;5110984;28;20027;-76
2021/03/19 02:50:01;;;;;;;42.53;20.83;;;;;;;-0.60;68.62;98425.09;5111236;28;20027;-77
2021/03/19 02:52:34;;;;;;;45.90;21.58;;;;;;;-0.54;68.44;98429.59;5111257;28;20478;-77
2021/03/19 02:55:00;;;;;;;44.42;20.98;;;;;;;-0.50;68.47;98433.47;5110484;28;20023;-77
2021/03/19 02:57:25;;;;;;;49.40;22.92;;;;;;;-0.48;68.35;98428.69;5111163;28;20422;-77
2021/03/19 02:59:50;;;;;;;43.72;20.35;;;;;;;-0.49;68.30;98423.50;5111116;28;20535;-77
2021/03/19 03:02:16;;;;;;;43.05;19.17;;;;;;;-0.50;68.05;98421.88;5110986;28;20378;-77
2021/03/19 03:04:41;;;;;;;44.92;20.58;;;;;;;-0.57;67.79;98423.81;5114661;28;20028;-77
2021/03/19 03:07:19;;;;;;;50.95;22.40;;;;;;;-0.53;68.19;98420.47;5114991;28;20026;-77
2021/03/19 03:09:45;;;;;;;50.10;22.75;;;;;;;-0.44;68.21;98423.66;5112661;28;20039;-77
2021/03/19 03:12:10;;;;;;;50.97;23.45;;;;;;;-0.40;68.30;98424.88;5114917;28;20074;-78
2021/03/19 03:14:36;;;;;;;52.38;23.13;;;;;;;-0.33;68.13;98422.91;5114438;28;20035;-77
2021/03/19 03:17:04;;;;;;;49.35;22.90;;;;;;;-0.26;68.33;98432.81;5114797;28;20136;-77
2021/03/19 03:19:30;;;;;;;50.15;23.02;;;;;;;-0.27;68.23;98429.25;5114671;28;20020;-77
2021/03/19 03:21:56;;;;;;;56.47;24.25;;;;;;;-0.26;68.32;98439.00;5114513;28;20035;-78
2021/03/19 03:24:23;;;;;;;53.30;23.73;;;;;;;-0.21;68.33;98431.06;5112342;28;20027;-77
2021/03/19 03:26:49;;;;;;;60.08;26.60;;;;;;;-0.18;68.02;98441.38;5114710;28;20104;-78
2021/03/19 03:29:14;;;;;;;80.10;30.52;;;;;;;-0.23;67.84;98435.03;5114465;28;20073;-77
2021/03/19 03:31:41;;;;;;;153.82;51.13;;;;;;;-0.31;67.84;98437.00;5114790;28;20027;-76
2021/03/19 03:34:07;;;;;;;51.17;23.08;;;;;;;-0.48;67.48;98444.03;5114372;28;20544;-78
2021/03/19 03:36:33;;;;;;;48.50;21.85;;;;;;;-0.62;67.43;98446.88;5109557;28;20027;-77
2021/03/19 03:39:00;;;;;;;44.97;20.38;;;;;;;-0.76;67.69;98448.88;5114288;28;20030;-78
2021/03/19 03:41:27;;;;;;;104.80;38.60;;;;;;;-0.81;67.79;98442.50;5114388;28;20476;-78
2021/03/19 03:43:53;;;;;;;44.22;21.23;;;;;;;-0.86;68.04;98447.72;5114306;28;20152;-77
2021/03/19 03:46:25;;;;;;;46.67;22.92;;;;;;;-0.97;67.90;98443.91;5114252;28;20357;-77
2021/03/19 03:48:50;;;;;;;44.78;20.13;;;;;;;-1.10;68.40;98442.16;5114350;28;20019;-77
2021/03/19 03:51:16;;;;;;;46.88;21.33;;;;;;;-1.12;68.38;98446.94;5114159;28;21371;-78
2021/03/19 03:53:42;;;;;;;51.50;22.17;;;;;;;-1.12;68.21;98439.69;5093079;28;20571;-78
2021/03/19 03:56:13;;;;;;;46.58;21.90;;;;;;;-1.12;68.27;98433.47;5113901;28;20102;-76
2021/03/19 03:58:39;;;;;;;48.15;20.77;;;;;;;-1.12;68.25;98430.78;5113917;28;20023;-76
2021/03/19 04:01:05;;;;;;;70.85;27.55;;;;;;;-1.18;68.22;98435.16;5113769;28;20379;-76
2021/03/19 04:03:31;;;;;;;81.93;31.17;;;;;;;-1.13;68.88;98434.53;5113746;28;20027;-76
2021/03/19 04:05:56;;;;;;;64.82;27.13;;;;;;;-1.06;68.47;98430.72;5113745;28;20038;-75
2021/03/19 04:08:25;;;;;;;47.83;20.92;;;;;;;-1.10;68.76;98442.16;5110874;28;20115;-76
2021/03/19 04:10:52;;;;;;;51.53;21.48;;;;;;;-1.13;68.48;98431.84;5113484;28;20116;-76
2021/03/19 04:13:19;;;;;;;44.53;19.58;;;;;;;-1.17;68.69;98426.06;5113288;28;20016;-76
2021/03/19 04:15:45;;;;;;;45.55;20.33;;;;;;;-1.16;68.76;98437.66;5113020;28;20030;-76
2021/03/19 04:18:13;;;;;;;44.78;19.88;;;;;;;-1.15;68.68;98426.66;5113286;28;20020;-76
2021/03/19 04:20:41;;;;;;;45.97;19.33;;;;;;;-1.32;67.91;98442.53;5094980;28;20102;-76
2021/03/19 04:23:07;;;;;;;45.35;21.73;;;;;;;-1.47;68.25;98436.66;5113271;28;20049;-76
2021/03/19 04:25:33;;;;;;;46.28;20.20;;;;;;;-1.54;68.45;98436.69;5113585;28;20016;-76
2021/03/19 04:28:02;;;;;;;47.42;21.20;;;;;;;-1.52;68.56;98438.16;5112895;28;20079;-76
2021/03/19 04:30:39;;;;;;;46.60;21.00;;;;;;;-1.50;68.81;98435.22;5113133;28;20110;-76
2021/03/19 04:33:06;;;;;;;53.05;22.88;;;;;;;-1.42;68.96;98442.19;5092499;28;20062;-76
2021/03/19 04:35:34;;;;;;;52.70;22.77;;;;;;;-1.39;68.55;98442.59;5094673;28;20039;-76
2021/03/19 04:38:03;;;;;;;54.28;23.60;;;;;;;-1.33;68.56;98445.47;5113152;28;20027;-76
2021/03/19 04:40:28;;;;;;;63.53;26.92;;;;;;;-1.28;68.95;98445.63;5113351;28;20491;-76
2021/03/19 04:42:55;;;;;;;68.22;29.27;;;;;;;-1.25;68.73;98448.69;5113053;28;20040;-76
2021/03/19 04:45:22;;;;;;;63.22;27.52;;;;;;;-1.23;68.87;98441.22;5112901;28;20023;-76
2021/03/19 04:47:47;;;;;;;69.85;28.92;;;;;;;-1.29;68.64;98436.72;5113136;28;20030;-77
2021/03/19 04:50:14;;;;;;;62.67;25.75;;;;;;;-1.36;68.52;98444.00;5112930;28;20174;-77
2021/03/19 04:52:40;;;;;;;65.45;28.02;;;;;;;-1.41;68.39;98444.69;5112991;28;20020;-77
2021/03/19 04:55:07;;;;;;;62.05;24.98;;;;;;;-1.40;68.68;98450.88;5112880;28;20102;-77
2021/03/19 04:57:32;;;;;;;43.38;19.27;;;;;;;-1.38;68.53;98449.63;5112679;28;20024;-77
2021/03/19 04:59:58;;;;;;;40.17;18.90;;;;;;;-1.38;69.11;98455.00;5112634;28;20031;-77
2021/03/19 05:02:50;;;;;;;51.05;20.65;;;;;;;-1.39;68.98;98456.06;5112321;28;20103;-76
2021/03/19 05:05:25;;;;;;;52.35;23.45;;;;;;;-1.42;68.95;98452.94;5107230;28;20032;-77
2021/03/19 05:07:51;;;;;;;51.60;23.35;;;;;;;-1.44;68.91;98457.75;5110924;28;20024;-76
2021/03/19 05:10:19;;;;;;;49.25;22.02;;;;;;;-1.46;68.70;98455.28;5112431;28;20057;-77
2021/03/19 05:12:45;;;;;;;47.40;22.25;;;;;;;-1.44;69.22;98461.25;5109948;28;20382;-77
2021/03/19 05:15:11;;;;;;;46.83;20.23;;;;;;;-1.47;69.02;98458.19;5112418;28;20024;-77
2021/03/19 05:17:36;;;;;;;45.60;20.30;;;;;;;-1.53;68.83;98462.56;5112408;28;20422;-77
2021/03/19 05:20:06;;;;;;;43.70;19.45;;;;;;;-1.60;68.83;98464.47;5112298;28;20061;-77
2021/03/19 05:22:31;;;;;;;46.65;20.70;;;;;;;-1.63;69.41;98460.34;5112269;28;20058;-77
2021/03/19 05:24:57;;;;;;;44.08;19.73;;;;;;;-1.57;69.17;98464.03;5111966;28;20062;-76
2021/03/19 05:27:25;;;;;;;47.47;20.15;;;;;;;-1.61;69.15;98463.66;5108834;28;20027;-77
2021/03/19 05:29:52;;;;;;;55.58;24.08;;;;;;;-1.59;69.27;98466.94;5112369;28;20362;-77
2021/03/19 05:32:17;;;;;;;46.80;20.92;;;;;;;-1.53;69.25;98468.78;5112024;28;20051;-77
2021/03/19 05:34:43;;;;;;;46.13;20.42;;;;;;;-1.51;69.50;98463.16;5109329;28;20526;-77
2021/03/19 05:37:08;;;;;;;49.78;20.58;;;;;;;-1.55;68.87;98470.00;5112112;28;20020;-77
2021/03/19 05:39:33;;;;;;;47.17;19.55;;;;;;;-1.57;69.23;98472.94;5112068;28;20020;-77
2021/03/19 05:41:59;;;;;;;47.95;21.30;;;;;;;-1.59;69.22;98471.50;5112093;28;20441;-77
2021/03/19 05:44:27;;;;;;;34.50;16.42;;;;;;;-1.58;69.26;98471.28;5112045;28;20087;-77
2021/03/19 05:47:00;;;;;;;42.47;18.23;;;;;;;-1.57;69.31;98472.09;5112004;28;20019;-77
2021/03/19 05:49:29;;;;;;;50.38;20.55;;;;;;;-1.51;68.91;98482.00;5109454;28;20076;-76
2021/03/19 05:51:57;;;;;;;44.03;19.48;;;;;;;-1.51;68.97;98485.53;5111733;28;20035;-77
2021/03/19 05:54:34;;;;;;;31.52;13.68;;;;;;;-1.48;69.18;98480.75;5093549;28;20375;-76
2021/03/19 05:57:00;;;;;;;47.03;20.33;;;;;;;-1.43;69.00;98484.44;5111838;28;20475;-77
2021/03/19 05:59:28;;;;;;;42.72;18.70;;;;;;;-1.40;69.41;98489.38;5111823;28;20061;-76
2021/03/19 06:01:54;;;;;;;54.85;24.63;;;;;;;-1.41;69.11;98486.88;5112076;28;20688;-76
2021/03/19 06:04:23;;;;;;;75.40;25.67;;;;;;;-1.41;69.32;98490.41;5111848;28;20023;-76
2021/03/19 06:07:03;;;;;;;34.83;15.33;;;;;;;-1.36;69.43;98501.34;5111547;28;20111;-76
2021/03/19 06:09:33;;;;;;;39.20;15.60;;;;;;;-1.32;69.25;98500.91;5109648;28;20278;-76
2021/03/19 06:12:04;;;;;;;38.80;15.90;;;;;;;-1.42;69.23;98499.53;5111649;28;20076;-76
2021/03/19 06:14:40;;;;;;;50.58;23.77;;;;;;;-1.53;68.97;98503.75;5109642;28;20384;-77
2021/03/19 06:17:28;;;;;;;63.45;25.88;;;;;;;-1.65;69.23;98497.38;5090471;28;20439;-75
2021/03/19 06:20:00;;;;;;;39.20;17.23;;;;;;;-1.67;69.68;98499.47;5109852;28;20034;-76
2021/03/19 06:22:36;;;;;;;34.42;15.77;;;;;;;-1.65;68.96;98506.31;5108457;28;20492;-76
2021/03/19 06:25:21;;;;;;;31.90;14.10;;;;;;;-1.69;69.47;98507.78;5110978;28;20049;-78
2021/03/19 06:27:58;;;;;;;47.00;19.98;;;;;;;-1.68;69.57;98501.34;5108580;28;20022;-76
2021/03/19 06:30:44;;;;;;;44.95;19.40;;;;;;;-1.54;69.78;98494.03;5108302;28;20019;-76
2021/03/19 06:33:12;;;;;;;52.05;22.23;;;;;;;-1.38;70.04;98499.91;5107965;28;20480;-77
2021/03/19 06:35:40;;;;;;;47.30;20.50;;;;;;;-1.29;69.71;98495.91;5110799;28;20016;-78
2021/03/19 06:38:32;;;;;;;41.13;19.08;;;;;;;-1.28;69.43;98508.31;5092705;28;20418;-77
2021/03/19 06:41:19;;;;;;;42.67;18.75;;;;;;;-1.20;69.42;98509.91;5113331;28;20031;-76
2021/03/19 06:43:44;;;;;;;42.80;19.17;;;;;;;-1.13;69.54;98509.88;5112367;28;20034;-77
2021/03/19 06:46:36;;;;;;;42.35;18.90;;;;;;;-1.05;69.51;98507.75;5096847;28;20126;-76
2021/03/19 06:49:05;;;;;;;48.33;23.40;;;;;;;-1.14;69.11;98503.66;5114791;28;20038;-76
2021/03/19 06:51:35;;;;;;;48.60;23.98;;;;;;;-1.10;69.17;98506.75;5115062;28;20019;-75
2021/03/19 06:54:03;;;;;;;45.45;21.17;;;;;;;-1.08;69.19;98500.09;5114964;28;20024;-75
2021/03/19 06:56:28;;;;;;;48.35;21.10;;;;;;;-1.09;69.35;98511.91;5114674;28;20445;-75
2021/03/19 06:58:55;;;;;;;48.08;22.00;;;;;;;-1.16;68.97;98503.06;5114859;28;20027;-75
2021/03/19 07:01:23;;;;;;;40.60;18.90;;;;;;;-1.11;69.23;98508.63;5114795;28;20039;-76
2021/03/19 07:03:54;;;;;;;43.30;19.67;;;;;;;-1.14;68.69;98510.94;5114741;28;20019;-75
2021/03/19 07:06:28;;;;;;;43.38;19.98;;;;;;;-1.11;69.44;98514.00;5114714;28;20031;-75
2021/03/19 07:08:59;;;;;;;36.88;16.73;;;;;;;-1.13;68.92;98518.78;5113115;28;20119;-74
2021/03/19 07:11:45;;;;;;;39.55;18.90;;;;;;;-1.16;69.41;98507.63;5111891;28;20023;-75
2021/03/19 07:14:41;;;;;;;38.78;19.10;;;;;;;-1.00;69.54;98512.47;5112578;28;20506;-75
2021/03/19 07:17:25;;;;;;;44.58;20.25;;;;;;;-0.83;69.72;98520.84;5112574;28;20024;-74
2021/03/19 07:20:15;;;;;;;44.25;21.20;;;;;;;-0.68;69.44;98511.56;5112465;28;20039;-74
2021/03/19 07:23:02;;;;;;;;;;;;;;;-0.51;69.89;98518.06;5114537;28;20019;-74
2021/03/19 07:25:49;;;;;;;325.73;188.02;;;;;;;-0.35;69.60;98515.81;5112181;28;20311;-74
2021/03/19 07:28:36;;;;;;;237.65;132.93;;;;;;;-0.30;69.21;98515.97;5113173;28;20027;-74
2021/03/19 07:31:28;;;;;;;492.85;354.77;;;;;;;-0.12;69.23;98515.13;5114458;28;20114;-74
2021/03/19 07:34:22;;;;;;;179.73;113.95;;;;;;;-0.02;69.44;98520.84;5113058;28;20643;-73
2021/03/19 07:37:02;;;;;;;106.30;55.95;;;;;;;0.21;69.35;98522.00;5077278;28;20093;-75
2021/03/19 07:39:30;;;;;;;159.15;81.18;;;;;;;0.44;69.34;98525.88;5095289;28;20056;-75
2021/03/19 07:42:14;;;;;;;83.38;40.83;;;;;;;0.68;69.17;98525.94;5076923;28;20400;-75
2021/03/19 07:44:54;;;;;;;71.40;34.85;;;;;;;0.94;69.14;98532.00;5095198;28;20028;-75
2021/03/19 07:47:53;;;;;;;65.80;30.17;;;;;;;0.97;68.60;98537.75;5095289;28;20369;-75
2021/03/19 07:50:27;;;;;;;65.60;33.25;;;;;;;1.03;68.41;98531.44;5101958;28;20032;-74
2021/03/19 07:53:24;;;;;;;56.90;27.35;;;;;;;1.15;68.52;98531.44;5111987;28;20084;-74
2021/03/19 07:55:59;;;;;;;50.15;24.45;;;;;;;1.19;67.96;98529.13;5081468;28;20551;-75
2021/03/19 07:58:43;;;;;;;224.00;73.25;;;;;;;1.21;68.02;98536.97;5080482;28;20020;-75
2021/03/19 08:05:01;;;;;;;56.92;27.90;;;;;;;1.03;67.40;98541.41;5066665;28;20353;-76
2021/03/19 08:07:46;;;;;;;59.72;27.95;;;;;;;1.06;67.62;98542.84;5068858;28;20068;-76
2021/03/19 08:10:28;;;;;;;44.88;20.88;;;;;;;1.12;67.58;98540.03;5069037;28;20465;-76
2021/03/19 08:12:57;;;;;;;50.67;24.42;;;;;;;1.02;67.09;98540.59;5069059;28;20163;-76
2021/03/19 08:15:38;;;;;;;39.42;19.48;;;;;;;1.10;67.22;98534.03;5069382;28;20091;-77
2021/03/19 08:18:26;;;;;;;43.30;21.08;;;;;;;1.21;67.18;98539.69;5068909;28;20036;-76
2021/03/19 08:21:05;;;;;;;51.75;23.65;;;;;;;1.27;67.29;98541.47;5062890;28;20688;-76
2021/03/19 08:23:44;;;;;;;35.90;17.33;;;;;;;1.06;66.19;98532.84;5069197;28;20033;-76
2021/03/19 08:26:37;;;;;;;62.45;25.67;;;;;;;0.84;66.06;98538.78;5069207;28;20032;-75
2021/03/19 08:29:21;;;;;;;56.90;24.67;;;;;;;0.81;66.59;98538.44;5068246;28;20036;-76
2021/03/19 08:32:30;;;;;;;41.15;19.77;;;;;;;0.74;66.62;98536.66;5067908;28;20085;-76
2021/03/19 08:35:23;;;;;;;42.63;20.50;;;;;;;0.73;66.40;98539.56;5069046;28;20481;-76
2021/03/19 08:37:52;;;;;;;50.58;24.85;;;;;;;0.77;66.46;98535.38;5067648;28;20492;-76
2021/03/19 08:40:39;;;;;;;41.10;20.23;;;;;;;0.97;66.96;98543.16;5068891;28;20492;-74
2021/03/19 08:43:18;;;;;;;48.50;23.15;;;;;;;1.12;67.00;98540.03;5066937;28;20051;-75
2021/03/19 08:45:43;;;;;;;44.22;21.38;;;;;;;1.24;66.76;98539.22;5067368;28;20075;-75
2021/03/19 08:48:15;;;;;;;47.40;21.73;;;;;;;1.33;66.26;98540.53;5066927;28;20074;-75
2021/03/19 08:50:43;;;;;;;38.80;19.80;;;;;;;1.40;66.18;98541.25;5066802;28;20025;-76
2021/03/19 08:53:21;;;;;;;46.13;23.00;;;;;;;1.52;66.04;98535.84;5067926;28;20823;-75
2021/03/19 08:56:11;;;;;;;40.05;21.20;;;;;;;1.61;65.81;98531.72;5066519;28;20645;-75
2021/03/19 08:58:50;;;;;;;42.58;21.02;;;;;;;1.69;64.98;98533.25;5067422;28;20021;-76
2021/03/19 09:01:52;;;;;;;44.00;22.08;;;;;;;1.75;65.54;98526.06;5067466;28;20091;-75
2021/03/19 09:04:18;;;;;;;45.58;22.55;;;;;;;1.80;65.28;98533.47;5067532;28;20505;-76
2021/03/19 09:07:17;;;;;;;40.10;20.48;;;;;;;1.70;65.17;98532.19;5067069;28;20028;-76
2021/03/19 09:09:43;;;;;;;36.00;18.30;;;;;;;1.73;65.47;98536.28;5068009;28;20077;-76
2021/03/19 09:12:10;;;;;;;35.47;17.83;;;;;;;1.70;64.87;98534.88;5067965;28;20307;-75
2021/03/19 09:14:40;;;;;;;38.25;20.05;;;;;;;1.63;64.45;98535.00;5062846;28;20028;-75
2021/03/19 09:17:10;;;;;;;33.72;18.13;;;;;;;1.59;64.37;98533.84;5055023;28;20032;-75
2021/03/19 09:19:43;;;;;;;30.67;16.67;;;;;;;1.59;64.79;98539.25;5054948;28;20021;-75
2021/03/19 09:22:28;;;;;;;32.47;16.65;;;;;;;1.57;64.36;98532.41;5054782;28;20351;-75
2021/03/19 09:25:13;;;;;;;40.60;20.83;;;;;;;1.71;65.01;98535.69;5054800;28;20485;-75
2021/03/19 09:27:45;;;;;;;43.30;21.80;;;;;;;1.90;64.50;98529.09;5054891;28;20053;-75
2021/03/19 09:30:14;;;;;;;48.03;25.02;;;;;;;2.06;64.57;98532.94;5054743;28;20028;-75
2021/03/19 09:32:45;;;;;;;38.90;23.23;;;;;;;2.20;64.40;98532.69;5054663;28;20033;-75
2021/03/19 09:35:34;;;;;;;42.40;23.25;;;;;;;2.32;63.90;98519.13;5054726;28;20037;-75
2021/03/19 09:38:01;;;;;;;32.38;18.65;;;;;;;2.30;63.49;98526.66;5054446;28;20029;-75
2021/03/19 09:40:48;;;;;;;33.42;20.02;;;;;;;2.31;63.33;98531.00;5054269;28;20033;-75
2021/03/19 09:43:52;;;;;;;36.13;19.35;;;;;;;2.37;62.63;98525.44;5054205;28;20051;-75
2021/03/19 09:46:20;;;;;;;28.52;16.08;;;;;;;2.52;62.91;98530.31;5053903;28;20401;-75
2021/03/19 09:49:03;;;;;;;35.55;20.10;;;;;;;2.60;62.94;98523.72;5054182;28;20025;-75
2021/03/19 09:51:34;;;;;;;26.52;16.15;;;;;;;2.59;62.93;98535.63;5054021;28;20385;-75
2021/03/19 09:54:35;;;;;;;30.95;19.00;;;;;;;2.44;61.81;98521.78;5054273;28;20405;-75
2021/03/19 09:57:19;;;;;;;30.48;17.58;;;;;;;2.44;62.42;98524.47;5031902;28;20037;-75
2021/03/19 09:59:46;;;;;;;28.42;16.42;;;;;;;2.46;62.05;98519.66;5051994;28;20041;-75
2021/03/19 10:02:25;;;;;;;31.20;18.00;;;;;;;2.48;61.65;98515.63;5053941;28;20029;-75
2021/03/19 10:04:51;;;;;;;44.22;21.90;;;;;;;2.65;62.68;98518.38;5054007;28;20048;-76
2021/03/19 10:07:22;;;;;;;31.75;17.10;;;;;;;2.78;62.26;98513.72;5053806;28;20013;-76
2021/03/19 10:09:57;;;;;;;36.22;19.52;;;;;;;2.92;62.45;98516.94;5052584;28;20021;-76
2021/03/19 10:12:32;;;;;;;25.63;16.23;;;;;;;2.95;62.16;98511.88;5052858;28;20032;-75
2021/03/19 10:15:15;;;;;;;25.75;14.55;;;;;;;3.07;60.68;98513.66;5053817;28;20025;-75
2021/03/19 10:17:49;;;;;;;22.52;12.15;;;;;;;3.01;60.35;98515.47;5053850;28;20531;-75
2021/03/19 10:20:28;;;;;;;26.45;14.98;;;;;;;3.02;59.82;98510.91;5052565;28;20080;-75
2021/03/19 10:23:09;;;;;;;23.13;14.07;;;;;;;3.01;58.77;98517.38;5053522;28;20029;-76
2021/03/19 10:25:37;;;;;;;17.52;11.45;;;;;;;3.03;59.11;98507.94;5053349;28;20024;-75
2021/03/19 10:28:18;;;;;;;85.03;30.38;;;;;;;3.10;59.38;98515.88;5052930;28;20396;-75
2021/03/19 10:31:09;;;;;;;15.05;10.07;;;;;;;3.23;56.98;98512.06;5053525;28;20035;-76
2021/03/19 10:33:42;;;;;;;;;;;;;;;3.31;57.04;98519.75;5053801;28;20028;-76
2021/03/19 10:36:13;;;;;;;24.50;11.00;;;;;;;3.36;56.17;98519.03;5053470;28;19909;-76
2021/03/19 10:38:45;;;;;;;16.48;9.63;;;;;;;3.51;57.03;98513.81;5051983;28;20021;-75
2021/03/19 10:41:29;;;;;;;20.20;11.35;;;;;;;3.73;57.01;98511.16;5053228;28;20027;-76
2021/03/19 10:43:57;;;;;;;18.00;9.50;;;;;;;4.02;57.14;98502.03;5053060;28;20035;-76
2021/03/19 10:46:47;;;;;;;11.43;7.00;;;;;;;4.20;54.75;98503.59;5053184;28;20086;-76
2021/03/19 10:49:19;;;;;;;11.65;8.23;;;;;;;4.20;54.40;98508.22;5053213;28;20049;-76
2021/03/19 10:52:13;;;;;;;16.88;8.75;;;;;;;4.25;53.46;98500.16;5053133;28;20051;-76
2021/03/19 10:54:43;;;;;;;13.35;8.10;;;;;;;4.29;49.80;98491.22;5053021;28;20500;-76
2021/03/19 10:57:24;;;;;;;22.10;11.32;;;;;;;4.29;51.08;98484.97;5053548;28;20375;-76
2021/03/19 10:59:52;;;;;;;28.05;11.73;;;;;;;4.24;49.48;98495.78;5052587;28;20527;-77
2021/03/19 11:02:29;;;;;;;30.25;16.08;;;;;;;4.05;51.56;98500.72;5051331;28;20381;-76
2021/03/19 11:04:54;;;;;;;21.80;12.73;;;;;;;3.95;52.67;98494.09;5049705;28;20045;-76
2021/03/19 11:07:26;;;;;;;66.40;21.92;;;;;;;3.83;52.71;98494.22;5051504;28;20359;-76
2021/03/19 11:09:58;;;;;;;17.35;11.00;;;;;;;3.59;52.48;98493.59;5052819;28;20416;-76
2021/03/19 11:12:32;;;;;;;18.90;11.80;;;;;;;3.35;53.30;98491.06;5052804;28;20091;-76
2021/03/19 11:14:59;;;;;;;25.40;13.48;;;;;;;3.38;53.91;98497.91;5052735;28;20021;-76
2021/03/19 11:17:25;;;;;;;22.75;13.57;;;;;;;3.39;53.46;98505.78;5052771;28;20025;-76
2021/03/19 11:20:06;;;;;;;36.95;15.68;;;;;;;3.40;54.74;98502.00;5052667;28;20456;-76
2021/03/19 11:22:41;;;;;;;26.13;14.77;;;;;;;3.45;54.88;98498.56;5051764;28;20033;-76
2021/03/19 11:25:21;;;;;;;31.73;15.23;;;;;;;3.36;54.43;98500.84;5051359;28;20082;-76
2021/03/19 11:27:48;;;;;;;22.67;12.40;;;;;;;3.36;54.27;98497.34;5051226;28;20029;-76
2021/03/19 11:30:23;;;;;;;25.27;15.55;;;;;;;3.45;54.19;98492.31;5052158;28;20025;-76
2021/03/19 11:33:08;;;;;;;14.52;9.00;;;;;;;3.42;53.24;98488.22;5050998;28;20028;-76
2021/03/19 11:35:34;;;;;;;16.80;10.43;;;;;;;3.36;53.21;98495.44;5052309;28;20060;-76
2021/03/19 11:38:00;;;;;;;16.17;10.15;;;;;;;3.35;53.45;98495.69;5052203;28;20028;-76
2021/03/19 11:40:35;;;;;;;43.70;18.83;;;;;;;3.26;53.93;98500.72;5051948;28;20025;-76
2021/03/19 11:43:02;;;;;;;41.78;19.77;;;;;;;3.26;53.07;98506.13;5052225;28;20024;-76
2021/03/19 11:45:29;;;;;;;37.38;20.42;;;;;;;3.20;52.83;98502.50;5052068;28;20021;-76
2021/03/19 11:47:57;;;;;;;20.70;13.27;;;;;;;3.12;52.45;98501.03;5051959;28;20078;-76
2021/03/19 11:50:23;;;;;;;19.23;13.60;;;;;;;2.98;52.38;98508.69;5051933;28;20009;-76
2021/03/19 11:52:51;;;;;;;18.67;13.02;;;;;;;2.87;52.68;98517.69;5051933;28;20027;-76
2021/03/19 11:55:20;;;;;;;17.80;12.20;;;;;;;2.77;52.60;98521.03;5052028;28;20036;-76
2021/03/19 11:57:45;;;;;;;29.08;21.63;;;;;;;2.67;52.82;98520.84;5051874;28;20025;-75